sensor_id;sensor_type;location;lat;lon;timestamp;P1;durP1;ratioP1;P2;durP2;ratioP2
22871;SDS011;11603;44.910;8.630;2022-11-09T00:00:20;32.28;;;21.60;;
22871;SDS011;11603;44.910;8.630;2022-11-09T00:02:45;35.97;;;21.13;;
22871;SDS011;11603;44.910;8.630;2022-11-09T00:05:11;38.80;;;24.77;;
22871;SDS011;11603;44.910;8.630;2022-11-09T00:07:36;29.48;;;20.67;;
22871;SDS011;11603;44.910;8.630;2022-11-09T00:10:02;24.27;;;18.13;;
22871;SDS011;11603;44.910;8.630;2022-11-09T00:12:28;26.13;;;18.52;;
22871;SDS011;11603;44.910;8.630;2022-11-09T00:14:53;28.73;;;19.48;;
22871;SDS011;11603;44.910;8.630;2022-11-09T00:17:19;29.13;;;18.88;;
22871;SDS011;11603;44.910;8.630;2022-11-09T00:19:44;26.38;;;18.85;;
22871;SDS011;11603;44.910;8.630;2022-11-09T00:22:09;28.15;;;19.08;;
22871;SDS011;11603;44.910;8.630;2022-11-09T00:24:36;31.13;;;20.20;;
22871;SDS011;11603;44.910;8.630;2022-11-09T00:27:01;30.85;;;19.08;;
22871;SDS011;11603;44.910;8.630;2022-11-09T00:29:27;27.80;;;19.60;;
22871;SDS011;11603;44.910;8.630;2022-11-09T00:31:52;34.83;;;21.17;;
22871;SDS011;11603;44.910;8.630;2022-11-09T00:34:18;29.30;;;20.27;;
22871;SDS011;11603;44.910;8.630;2022-11-09T00:36:43;27.42;;;19.15;;
22871;SDS011;11603;44.910;8.630;2022-11-09T00:39:09;28.00;;;19.60;;
22871;SDS011;11603;44.910;8.630;2022-11-09T00:41:34;34.78;;;22.98;;
22871;SDS011;11603;44.910;8.630;2022-11-09T00:44:00;37.00;;;23.60;;
22871;SDS011;11603;44.910;8.630;2022-11-09T00:46:25;32.35;;;22.77;;
22871;SDS011;11603;44.910;8.630;2022-11-09T00:48:52;31.10;;;21.48;;
22871;SDS011;11603;44.910;8.630;2022-11-09T00:51:20;33.53;;;20.92;;
22871;SDS011;11603;44.910;8.630;2022-11-09T00:53:45;28.15;;;20.40;;
22871;SDS011;11603;44.910;8.630;2022-11-09T00:56:13;32.20;;;19.85;;
22871;SDS011;11603;44.910;8.630;2022-11-09T00:58:39;33.53;;;21.38;;
22871;SDS011;11603;44.910;8.630;2022-11-09T01:01:09;27.73;;;21.23;;
22871;SDS011;11603;44.910;8.630;2022-11-09T01:03:39;33.15;;;20.55;;
22871;SDS011;11603;44.910;8.630;2022-11-09T01:06:06;32.35;;;22.08;;
22871;SDS011;11603;44.910;8.630;2022-11-09T01:08:35;34.92;;;25.38;;
22871;SDS011;11603;44.910;8.630;2022-11-09T01:11:04;38.42;;;25.13;;
22871;SDS011;11603;44.910;8.630;2022-11-09T01:13:31;34.42;;;23.35;;
22871;SDS011;11603;44.910;8.630;2022-11-09T01:15:56;42.17;;;28.17;;
22871;SDS011;11603;44.910;8.630;2022-11-09T01:18:22;39.05;;;24.95;;
22871;SDS011;11603;44.910;8.630;2022-11-09T01:20:50;40.05;;;25.70;;
22871;SDS011;11603;44.910;8.630;2022-11-09T01:23:16;43.13;;;25.38;;
22871;SDS011;11603;44.910;8.630;2022-11-09T01:25:44;35.50;;;24.50;;
22871;SDS011;11603;44.910;8.630;2022-11-09T01:28:09;34.83;;;25.48;;
22871;SDS011;11603;44.910;8.630;2022-11-09T01:30:36;39.53;;;24.88;;
22871;SDS011;11603;44.910;8.630;2022-11-09T01:33:04;38.90;;;26.05;;
22871;SDS011;11603;44.910;8.630;2022-11-09T01:35:34;35.85;;;24.85;;
22871;SDS011;11603;44.910;8.630;2022-11-09T01:38:01;38.47;;;25.50;;
22871;SDS011;11603;44.910;8.630;2022-11-09T01:40:28;38.85;;;25.30;;
22871;SDS011;11603;44.910;8.630;2022-11-09T01:42:55;38.10;;;24.88;;
22871;SDS011;11603;44.910;8.630;2022-11-09T01:45:22;39.35;;;25.23;;
22871;SDS011;11603;44.910;8.630;2022-11-09T01:48:01;40.67;;;25.27;;
22871;SDS011;11603;44.910;8.630;2022-11-09T01:50:43;39.65;;;24.33;;
22871;SDS011;11603;44.910;8.630;2022-11-09T01:53:17;40.05;;;24.95;;
22871;SDS011;11603;44.910;8.630;2022-11-09T01:55:51;47.22;;;25.98;;
22871;SDS011;11603;44.910;8.630;2022-11-09T01:59:02;44.85;;;25.25;;
22871;SDS011;11603;44.910;8.630;2022-11-09T02:01:13;40.25;;;25.50;;
22871;SDS011;11603;44.910;8.630;2022-11-09T02:03:42;35.92;;;23.80;;
22871;SDS011;11603;44.910;8.630;2022-11-09T02:06:14;36.67;;;24.25;;
22871;SDS011;11603;44.910;8.630;2022-11-09T02:08:42;37.13;;;24.45;;
22871;SDS011;11603;44.910;8.630;2022-11-09T02:11:11;35.00;;;23.90;;
22871;SDS011;11603;44.910;8.630;2022-11-09T02:13:41;32.38;;;23.13;;
22871;SDS011;11603;44.910;8.630;2022-11-09T02:16:09;30.33;;;23.40;;
22871;SDS011;11603;44.910;8.630;2022-11-09T02:18:41;32.55;;;21.92;;
22871;SDS011;11603;44.910;8.630;2022-11-09T02:21:22;27.83;;;18.98;;
22871;SDS011;11603;44.910;8.630;2022-11-09T02:23:53;29.27;;;19.80;;
22871;SDS011;11603;44.910;8.630;2022-11-09T02:26:20;30.30;;;20.52;;
22871;SDS011;11603;44.910;8.630;2022-11-09T02:28:51;28.23;;;19.00;;
22871;SDS011;11603;44.910;8.630;2022-11-09T02:31:20;29.80;;;18.38;;
22871;SDS011;11603;44.910;8.630;2022-11-09T02:36:14;31.63;;;21.30;;
22871;SDS011;11603;44.910;8.630;2022-11-09T02:38:40;32.35;;;22.30;;
22871;SDS011;11603;44.910;8.630;2022-11-09T02:41:06;36.05;;;22.95;;
22871;SDS011;11603;44.910;8.630;2022-11-09T02:43:33;33.65;;;22.60;;
22871;SDS011;11603;44.910;8.630;2022-11-09T02:45:59;34.30;;;23.27;;
22871;SDS011;11603;44.910;8.630;2022-11-09T02:48:25;35.00;;;25.00;;
22871;SDS011;11603;44.910;8.630;2022-11-09T02:50:50;35.90;;;25.58;;
22871;SDS011;11603;44.910;8.630;2022-11-09T02:53:16;37.88;;;25.10;;
22871;SDS011;11603;44.910;8.630;2022-11-09T02:55:44;34.72;;;25.63;;
22871;SDS011;11603;44.910;8.630;2022-11-09T02:58:10;36.60;;;26.48;;
22871;SDS011;11603;44.910;8.630;2022-11-09T03:00:37;37.17;;;26.20;;
22871;SDS011;11603;44.910;8.630;2022-11-09T03:03:03;37.15;;;26.75;;
22871;SDS011;11603;44.910;8.630;2022-11-09T03:05:30;38.47;;;26.38;;
22871;SDS011;11603;44.910;8.630;2022-11-09T03:07:55;35.63;;;26.25;;
22871;SDS011;11603;44.910;8.630;2022-11-09T03:10:21;36.90;;;25.88;;
22871;SDS011;11603;44.910;8.630;2022-11-09T03:12:48;33.45;;;24.63;;
22871;SDS011;11603;44.910;8.630;2022-11-09T03:15:13;35.33;;;25.15;;
22871;SDS011;11603;44.910;8.630;2022-11-09T03:17:43;36.47;;;25.40;;
22871;SDS011;11603;44.910;8.630;2022-11-09T03:20:08;36.40;;;25.52;;
22871;SDS011;11603;44.910;8.630;2022-11-09T03:22:36;36.83;;;25.38;;
22871;SDS011;11603;44.910;8.630;2022-11-09T03:25:02;36.83;;;24.58;;
22871;SDS011;11603;44.910;8.630;2022-11-09T03:27:28;35.97;;;25.73;;
22871;SDS011;11603;44.910;8.630;2022-11-09T03:29:53;37.45;;;26.83;;
22871;SDS011;11603;44.910;8.630;2022-11-09T03:32:20;34.88;;;25.08;;
22871;SDS011;11603;44.910;8.630;2022-11-09T03:34:45;36.42;;;24.50;;
22871;SDS011;11603;44.910;8.630;2022-11-09T03:37:12;38.15;;;23.58;;
22871;SDS011;11603;44.910;8.630;2022-11-09T03:39:38;31.17;;;23.33;;
22871;SDS011;11603;44.910;8.630;2022-11-09T03:42:04;37.28;;;23.05;;
22871;SDS011;11603;44.910;8.630;2022-11-09T03:44:30;34.63;;;22.92;;
22871;SDS011;11603;44.910;8.630;2022-11-09T03:46:55;37.38;;;24.25;;
22871;SDS011;11603;44.910;8.630;2022-11-09T03:49:20;32.92;;;23.63;;
22871;SDS011;11603;44.910;8.630;2022-11-09T03:51:48;35.67;;;24.88;;
22871;SDS011;11603;44.910;8.630;2022-11-09T03:54:13;38.70;;;23.25;;
22871;SDS011;11603;44.910;8.630;2022-11-09T03:56:39;35.03;;;22.42;;
22871;SDS011;11603;44.910;8.630;2022-11-09T03:59:05;37.55;;;23.30;;
22871;SDS011;11603;44.910;8.630;2022-11-09T04:01:30;31.85;;;22.92;;
22871;SDS011;11603;44.910;8.630;2022-11-09T04:03:56;32.38;;;22.52;;
22871;SDS011;11603;44.910;8.630;2022-11-09T04:06:21;33.75;;;23.05;;
22871;SDS011;11603;44.910;8.630;2022-11-09T04:08:47;36.10;;;21.85;;
22871;SDS011;11603;44.910;8.630;2022-11-09T04:11:13;35.65;;;23.55;;
22871;SDS011;11603;44.910;8.630;2022-11-09T04:13:38;37.88;;;23.55;;
22871;SDS011;11603;44.910;8.630;2022-11-09T04:16:04;35.17;;;24.20;;
22871;SDS011;11603;44.910;8.630;2022-11-09T04:18:29;38.75;;;24.02;;
22871;SDS011;11603;44.910;8.630;2022-11-09T04:20:56;32.25;;;23.60;;
22871;SDS011;11603;44.910;8.630;2022-11-09T04:23:23;35.33;;;22.98;;
22871;SDS011;11603;44.910;8.630;2022-11-09T04:25:49;34.35;;;24.08;;
22871;SDS011;11603;44.910;8.630;2022-11-09T04:28:17;39.38;;;23.95;;
22871;SDS011;11603;44.910;8.630;2022-11-09T04:30:43;39.60;;;25.15;;
22871;SDS011;11603;44.910;8.630;2022-11-09T04:33:08;37.03;;;23.98;;
22871;SDS011;11603;44.910;8.630;2022-11-09T04:35:34;40.08;;;24.35;;
22871;SDS011;11603;44.910;8.630;2022-11-09T04:38:01;38.33;;;25.58;;
22871;SDS011;11603;44.910;8.630;2022-11-09T04:40:29;41.22;;;24.50;;
22871;SDS011;11603;44.910;8.630;2022-11-09T04:42:58;36.97;;;24.85;;
22871;SDS011;11603;44.910;8.630;2022-11-09T04:45:24;37.65;;;24.90;;
22871;SDS011;11603;44.910;8.630;2022-11-09T04:47:50;38.53;;;25.05;;
22871;SDS011;11603;44.910;8.630;2022-11-09T04:50:16;41.20;;;25.77;;
22871;SDS011;11603;44.910;8.630;2022-11-09T04:52:41;39.92;;;25.10;;
22871;SDS011;11603;44.910;8.630;2022-11-09T04:55:07;42.83;;;25.27;;
22871;SDS011;11603;44.910;8.630;2022-11-09T04:57:33;44.20;;;26.27;;
22871;SDS011;11603;44.910;8.630;2022-11-09T04:59:58;39.40;;;25.40;;
22871;SDS011;11603;44.910;8.630;2022-11-09T05:02:24;42.55;;;26.23;;
22871;SDS011;11603;44.910;8.630;2022-11-09T05:04:49;37.97;;;25.48;;
22871;SDS011;11603;44.910;8.630;2022-11-09T05:07:15;40.28;;;25.08;;
22871;SDS011;11603;44.910;8.630;2022-11-09T05:09:40;39.13;;;25.90;;
22871;SDS011;11603;44.910;8.630;2022-11-09T05:12:06;43.08;;;25.58;;
22871;SDS011;11603;44.910;8.630;2022-11-09T05:14:32;43.35;;;26.65;;
22871;SDS011;11603;44.910;8.630;2022-11-09T05:16:57;41.28;;;26.45;;
22871;SDS011;11603;44.910;8.630;2022-11-09T05:19:23;41.83;;;26.80;;
22871;SDS011;11603;44.910;8.630;2022-11-09T05:21:48;41.47;;;26.77;;
22871;SDS011;11603;44.910;8.630;2022-11-09T05:24:14;45.05;;;26.55;;
22871;SDS011;11603;44.910;8.630;2022-11-09T05:26:40;42.58;;;26.58;;
22871;SDS011;11603;44.910;8.630;2022-11-09T05:29:07;42.17;;;26.10;;
22871;SDS011;11603;44.910;8.630;2022-11-09T05:31:35;45.15;;;27.33;;
22871;SDS011;11603;44.910;8.630;2022-11-09T05:34:01;45.22;;;26.83;;
22871;SDS011;11603;44.910;8.630;2022-11-09T05:36:28;46.13;;;26.73;;
22871;SDS011;11603;44.910;8.630;2022-11-09T05:38:55;45.20;;;26.92;;
22871;SDS011;11603;44.910;8.630;2022-11-09T05:41:21;46.10;;;27.38;;
22871;SDS011;11603;44.910;8.630;2022-11-09T05:43:47;44.25;;;28.40;;
22871;SDS011;11603;44.910;8.630;2022-11-09T05:46:13;40.33;;;26.90;;
22871;SDS011;11603;44.910;8.630;2022-11-09T05:48:39;43.65;;;27.17;;
22871;SDS011;11603;44.910;8.630;2022-11-09T05:51:06;46.00;;;27.20;;
22871;SDS011;11603;44.910;8.630;2022-11-09T05:53:34;43.67;;;27.60;;
22871;SDS011;11603;44.910;8.630;2022-11-09T05:56:01;43.63;;;26.98;;
22871;SDS011;11603;44.910;8.630;2022-11-09T05:58:31;41.80;;;27.42;;
22871;SDS011;11603;44.910;8.630;2022-11-09T06:01:01;42.50;;;27.27;;
22871;SDS011;11603;44.910;8.630;2022-11-09T06:03:27;44.35;;;27.70;;
22871;SDS011;11603;44.910;8.630;2022-11-09T06:05:53;44.67;;;27.10;;
22871;SDS011;11603;44.910;8.630;2022-11-09T06:08:18;44.08;;;27.98;;
22871;SDS011;11603;44.910;8.630;2022-11-09T06:10:45;39.78;;;26.05;;
22871;SDS011;11603;44.910;8.630;2022-11-09T06:13:11;42.35;;;27.23;;
22871;SDS011;11603;44.910;8.630;2022-11-09T06:15:36;47.22;;;27.48;;
22871;SDS011;11603;44.910;8.630;2022-11-09T06:18:02;42.28;;;27.50;;
22871;SDS011;11603;44.910;8.630;2022-11-09T06:20:27;46.50;;;27.67;;
22871;SDS011;11603;44.910;8.630;2022-11-09T06:22:57;40.63;;;26.55;;
22871;SDS011;11603;44.910;8.630;2022-11-09T06:25:24;44.78;;;27.30;;
22871;SDS011;11603;44.910;8.630;2022-11-09T06:27:52;41.60;;;28.02;;
22871;SDS011;11603;44.910;8.630;2022-11-09T06:30:18;44.83;;;26.95;;
22871;SDS011;11603;44.910;8.630;2022-11-09T06:32:44;43.92;;;27.10;;
22871;SDS011;11603;44.910;8.630;2022-11-09T06:35:10;45.88;;;28.30;;
22871;SDS011;11603;44.910;8.630;2022-11-09T06:37:35;40.47;;;27.55;;
22871;SDS011;11603;44.910;8.630;2022-11-09T06:40:01;43.47;;;27.85;;
22871;SDS011;11603;44.910;8.630;2022-11-09T06:42:26;41.42;;;26.33;;
22871;SDS011;11603;44.910;8.630;2022-11-09T06:44:51;42.30;;;27.33;;
22871;SDS011;11603;44.910;8.630;2022-11-09T06:47:17;40.53;;;27.30;;
22871;SDS011;11603;44.910;8.630;2022-11-09T06:49:42;41.25;;;26.83;;
22871;SDS011;11603;44.910;8.630;2022-11-09T06:52:08;47.88;;;27.77;;
22871;SDS011;11603;44.910;8.630;2022-11-09T06:54:33;38.72;;;26.58;;
22871;SDS011;11603;44.910;8.630;2022-11-09T06:56:59;44.08;;;27.35;;
22871;SDS011;11603;44.910;8.630;2022-11-09T06:59:25;39.85;;;26.42;;
22871;SDS011;11603;44.910;8.630;2022-11-09T07:01:53;43.88;;;28.17;;
22871;SDS011;11603;44.910;8.630;2022-11-09T07:04:19;42.40;;;27.80;;
22871;SDS011;11603;44.910;8.630;2022-11-09T07:06:46;44.63;;;27.95;;
22871;SDS011;11603;44.910;8.630;2022-11-09T07:09:11;43.65;;;26.98;;
22871;SDS011;11603;44.910;8.630;2022-11-09T07:11:37;42.28;;;26.88;;
22871;SDS011;11603;44.910;8.630;2022-11-09T07:14:03;45.70;;;28.08;;
22871;SDS011;11603;44.910;8.630;2022-11-09T07:16:29;43.40;;;27.60;;
22871;SDS011;11603;44.910;8.630;2022-11-09T07:18:55;43.58;;;28.75;;
22871;SDS011;11603;44.910;8.630;2022-11-09T07:21:20;46.50;;;29.02;;
22871;SDS011;11603;44.910;8.630;2022-11-09T07:23:46;45.15;;;29.17;;
22871;SDS011;11603;44.910;8.630;2022-11-09T07:26:13;41.60;;;28.35;;
22871;SDS011;11603;44.910;8.630;2022-11-09T07:28:40;47.17;;;29.55;;
22871;SDS011;11603;44.910;8.630;2022-11-09T07:31:07;46.00;;;27.98;;
22871;SDS011;11603;44.910;8.630;2022-11-09T07:33:33;43.80;;;28.73;;
22871;SDS011;11603;44.910;8.630;2022-11-09T07:35:59;46.28;;;28.45;;
22871;SDS011;11603;44.910;8.630;2022-11-09T07:38:27;43.00;;;27.58;;
22871;SDS011;11603;44.910;8.630;2022-11-09T07:40:53;42.45;;;29.27;;
22871;SDS011;11603;44.910;8.630;2022-11-09T07:43:22;45.13;;;29.13;;
22871;SDS011;11603;44.910;8.630;2022-11-09T07:45:50;42.42;;;28.88;;
22871;SDS011;11603;44.910;8.630;2022-11-09T07:48:16;46.92;;;31.25;;
22871;SDS011;11603;44.910;8.630;2022-11-09T07:50:42;45.15;;;31.00;;
22871;SDS011;11603;44.910;8.630;2022-11-09T07:53:10;43.83;;;29.83;;
22871;SDS011;11603;44.910;8.630;2022-11-09T07:55:37;48.55;;;29.70;;
22871;SDS011;11603;44.910;8.630;2022-11-09T07:58:05;42.95;;;30.33;;
22871;SDS011;11603;44.910;8.630;2022-11-09T08:00:34;49.35;;;30.95;;
22871;SDS011;11603;44.910;8.630;2022-11-09T08:03:00;51.70;;;31.42;;
22871;SDS011;11603;44.910;8.630;2022-11-09T08:05:26;49.50;;;30.33;;
22871;SDS011;11603;44.910;8.630;2022-11-09T08:07:55;47.53;;;29.73;;
22871;SDS011;11603;44.910;8.630;2022-11-09T08:10:22;46.75;;;29.95;;
22871;SDS011;11603;44.910;8.630;2022-11-09T08:13:01;44.58;;;30.33;;
22871;SDS011;11603;44.910;8.630;2022-11-09T08:15:29;50.03;;;31.73;;
22871;SDS011;11603;44.910;8.630;2022-11-09T08:17:58;48.50;;;31.95;;
22871;SDS011;11603;44.910;8.630;2022-11-09T08:20:25;49.20;;;31.13;;
22871;SDS011;11603;44.910;8.630;2022-11-09T08:22:50;53.15;;;31.92;;
22871;SDS011;11603;44.910;8.630;2022-11-09T08:25:16;50.90;;;32.47;;
22871;SDS011;11603;44.910;8.630;2022-11-09T08:27:42;44.22;;;30.80;;
22871;SDS011;11603;44.910;8.630;2022-11-09T08:30:15;48.25;;;32.22;;
22871;SDS011;11603;44.910;8.630;2022-11-09T08:32:42;57.17;;;32.55;;
22871;SDS011;11603;44.910;8.630;2022-11-09T08:35:09;52.40;;;34.25;;
22871;SDS011;11603;44.910;8.630;2022-11-09T08:37:36;52.53;;;34.00;;
22871;SDS011;11603;44.910;8.630;2022-11-09T08:40:02;48.22;;;32.80;;
22871;SDS011;11603;44.910;8.630;2022-11-09T08:42:29;53.78;;;32.38;;
22871;SDS011;11603;44.910;8.630;2022-11-09T08:44:54;54.17;;;34.10;;
22871;SDS011;11603;44.910;8.630;2022-11-09T08:47:20;49.88;;;33.47;;
22871;SDS011;11603;44.910;8.630;2022-11-09T08:49:45;50.13;;;34.10;;
22871;SDS011;11603;44.910;8.630;2022-11-09T08:52:11;51.28;;;32.17;;
22871;SDS011;11603;44.910;8.630;2022-11-09T08:54:37;53.65;;;33.92;;
22871;SDS011;11603;44.910;8.630;2022-11-09T08:57:03;48.95;;;32.05;;
22871;SDS011;11603;44.910;8.630;2022-11-09T08:59:29;47.20;;;32.55;;
22871;SDS011;11603;44.910;8.630;2022-11-09T09:01:54;46.92;;;32.22;;
22871;SDS011;11603;44.910;8.630;2022-11-09T09:04:20;44.60;;;31.17;;
22871;SDS011;11603;44.910;8.630;2022-11-09T09:06:45;46.78;;;32.85;;
22871;SDS011;11603;44.910;8.630;2022-11-09T09:09:10;46.03;;;30.80;;
22871;SDS011;11603;44.910;8.630;2022-11-09T09:11:36;48.55;;;32.40;;
22871;SDS011;11603;44.910;8.630;2022-11-09T09:14:01;48.13;;;32.97;;
22871;SDS011;11603;44.910;8.630;2022-11-09T09:16:27;48.97;;;32.38;;
22871;SDS011;11603;44.910;8.630;2022-11-09T09:18:53;46.40;;;32.40;;
22871;SDS011;11603;44.910;8.630;2022-11-09T09:21:18;46.60;;;32.67;;
22871;SDS011;11603;44.910;8.630;2022-11-09T09:23:46;49.75;;;34.17;;
22871;SDS011;11603;44.910;8.630;2022-11-09T09:26:13;48.55;;;33.15;;
22871;SDS011;11603;44.910;8.630;2022-11-09T09:28:40;50.00;;;31.92;;
22871;SDS011;11603;44.910;8.630;2022-11-09T09:31:05;47.50;;;33.10;;
22871;SDS011;11603;44.910;8.630;2022-11-09T09:33:31;47.13;;;32.80;;
22871;SDS011;11603;44.910;8.630;2022-11-09T09:35:57;51.55;;;33.42;;
22871;SDS011;11603;44.910;8.630;2022-11-09T09:38:23;52.17;;;33.88;;
22871;SDS011;11603;44.910;8.630;2022-11-09T09:40:57;50.92;;;32.90;;
22871;SDS011;11603;44.910;8.630;2022-11-09T09:43:31;52.13;;;33.58;;
22871;SDS011;11603;44.910;8.630;2022-11-09T09:46:01;49.22;;;33.25;;
22871;SDS011;11603;44.910;8.630;2022-11-09T09:48:53;49.65;;;32.63;;
22871;SDS011;11603;44.910;8.630;2022-11-09T09:54:10;47.30;;;33.35;;
22871;SDS011;11603;44.910;8.630;2022-11-09T09:56:42;48.40;;;34.33;;
22871;SDS011;11603;44.910;8.630;2022-11-09T09:59:11;51.03;;;32.90;;
22871;SDS011;11603;44.910;8.630;2022-11-09T10:01:44;49.08;;;33.13;;
22871;SDS011;11603;44.910;8.630;2022-11-09T10:06:48;47.28;;;31.88;;
22871;SDS011;11603;44.910;8.630;2022-11-09T10:12:00;51.50;;;30.50;;
22871;SDS011;11603;44.910;8.630;2022-11-09T10:20:06;44.25;;;30.65;;
22871;SDS011;11603;44.910;8.630;2022-11-09T10:22:55;49.80;;;30.38;;
22871;SDS011;11603;44.910;8.630;2022-11-09T10:25:26;49.15;;;31.58;;
22871;SDS011;11603;44.910;8.630;2022-11-09T10:27:55;45.67;;;30.45;;
22871;SDS011;11603;44.910;8.630;2022-11-09T10:30:24;46.17;;;31.08;;
22871;SDS011;11603;44.910;8.630;2022-11-09T10:33:05;49.38;;;32.33;;
22871;SDS011;11603;44.910;8.630;2022-11-09T10:38:39;44.70;;;30.33;;
22871;SDS011;11603;44.910;8.630;2022-11-09T10:41:37;48.15;;;31.52;;
22871;SDS011;11603;44.910;8.630;2022-11-09T10:44:23;45.33;;;31.95;;
22871;SDS011;11603;44.910;8.630;2022-11-09T10:47:11;47.67;;;31.02;;
22871;SDS011;11603;44.910;8.630;2022-11-09T10:53:09;45.58;;;30.08;;
22871;SDS011;11603;44.910;8.630;2022-11-09T10:55:58;44.65;;;30.83;;
22871;SDS011;11603;44.910;8.630;2022-11-09T10:58:53;44.72;;;30.90;;
22871;SDS011;11603;44.910;8.630;2022-11-09T11:01:37;47.28;;;31.33;;
22871;SDS011;11603;44.910;8.630;2022-11-09T11:04:22;45.25;;;31.02;;
22871;SDS011;11603;44.910;8.630;2022-11-09T11:07:18;46.42;;;31.42;;
22871;SDS011;11603;44.910;8.630;2022-11-09T11:15:43;42.42;;;30.15;;
22871;SDS011;11603;44.910;8.630;2022-11-09T11:18:28;43.75;;;27.85;;
22871;SDS011;11603;44.910;8.630;2022-11-09T11:21:17;42.78;;;28.55;;
22871;SDS011;11603;44.910;8.630;2022-11-09T11:24:10;41.55;;;27.17;;
22871;SDS011;11603;44.910;8.630;2022-11-09T11:26:55;42.90;;;26.52;;
22871;SDS011;11603;44.910;8.630;2022-11-09T11:32:35;41.70;;;26.25;;
22871;SDS011;11603;44.910;8.630;2022-11-09T11:44:52;37.45;;;27.20;;
22871;SDS011;11603;44.910;8.630;2022-11-09T11:48:04;37.78;;;26.88;;
22871;SDS011;11603;44.910;8.630;2022-11-09T11:51:22;42.55;;;28.10;;
22871;SDS011;11603;44.910;8.630;2022-11-09T11:54:23;39.92;;;27.48;;
22871;SDS011;11603;44.910;8.630;2022-11-09T12:00:34;40.67;;;27.63;;
22871;SDS011;11603;44.910;8.630;2022-11-09T12:03:41;38.30;;;27.67;;
22871;SDS011;11603;44.910;8.630;2022-11-09T12:12:39;42.40;;;28.25;;
22871;SDS011;11603;44.910;8.630;2022-11-09T12:15:42;41.67;;;28.52;;
22871;SDS011;11603;44.910;8.630;2022-11-09T12:21:46;36.67;;;27.73;;
22871;SDS011;11603;44.910;8.630;2022-11-09T12:27:32;42.13;;;28.88;;
22871;SDS011;11603;44.910;8.630;2022-11-09T12:33:40;45.35;;;29.05;;
22871;SDS011;11603;44.910;8.630;2022-11-09T12:39:41;38.35;;;28.17;;
22871;SDS011;11603;44.910;8.630;2022-11-09T12:42:34;40.75;;;29.20;;
22871;SDS011;11603;44.910;8.630;2022-11-09T12:45:29;40.75;;;29.98;;
22871;SDS011;11603;44.910;8.630;2022-11-09T12:48:27;41.08;;;28.63;;
22871;SDS011;11603;44.910;8.630;2022-11-09T12:51:13;40.25;;;29.48;;
22871;SDS011;11603;44.910;8.630;2022-11-09T12:53:59;40.08;;;29.48;;
22871;SDS011;11603;44.910;8.630;2022-11-09T12:57:00;41.03;;;29.65;;
22871;SDS011;11603;44.910;8.630;2022-11-09T13:05:26;45.92;;;30.15;;
22871;SDS011;11603;44.910;8.630;2022-11-09T13:08:25;44.40;;;30.73;;
22871;SDS011;11603;44.910;8.630;2022-11-09T13:11:28;51.33;;;32.28;;
22871;SDS011;11603;44.910;8.630;2022-11-09T13:34:55;50.25;;;33.55;;
22871;SDS011;11603;44.910;8.630;2022-11-09T13:43:15;46.15;;;33.58;;
22871;SDS011;11603;44.910;8.630;2022-11-09T13:48:52;44.35;;;33.03;;
22871;SDS011;11603;44.910;8.630;2022-11-09T13:51:42;43.25;;;32.47;;
22871;SDS011;11603;44.910;8.630;2022-11-09T13:57:12;45.47;;;32.30;;
22871;SDS011;11603;44.910;8.630;2022-11-09T13:59:57;51.00;;;32.67;;
22871;SDS011;11603;44.910;8.630;2022-11-09T14:02:42;44.92;;;32.95;;
22871;SDS011;11603;44.910;8.630;2022-11-09T14:05:36;45.72;;;31.35;;
22871;SDS011;11603;44.910;8.630;2022-11-09T14:08:26;46.35;;;33.55;;
22871;SDS011;11603;44.910;8.630;2022-11-09T14:17:20;45.22;;;32.22;;
22871;SDS011;11603;44.910;8.630;2022-11-09T14:23:30;42.22;;;32.33;;
22871;SDS011;11603;44.910;8.630;2022-11-09T14:26:17;46.75;;;34.33;;
22871;SDS011;11603;44.910;8.630;2022-11-09T14:29:20;48.85;;;33.10;;
22871;SDS011;11603;44.910;8.630;2022-11-09T14:38:42;49.58;;;33.25;;
22871;SDS011;11603;44.910;8.630;2022-11-09T14:41:27;47.92;;;33.20;;
22871;SDS011;11603;44.910;8.630;2022-11-09T14:44:13;51.60;;;33.42;;
22871;SDS011;11603;44.910;8.630;2022-11-09T14:47:03;50.53;;;33.85;;
22871;SDS011;11603;44.910;8.630;2022-11-09T14:49:48;49.92;;;33.67;;
22871;SDS011;11603;44.910;8.630;2022-11-09T14:52:32;48.72;;;33.88;;
22871;SDS011;11603;44.910;8.630;2022-11-09T14:55:17;46.83;;;33.35;;
22871;SDS011;11603;44.910;8.630;2022-11-09T14:58:03;47.58;;;33.40;;
22871;SDS011;11603;44.910;8.630;2022-11-09T15:01:06;55.30;;;34.22;;
22871;SDS011;11603;44.910;8.630;2022-11-09T15:06:55;50.63;;;33.72;;
22871;SDS011;11603;44.910;8.630;2022-11-09T15:09:45;49.38;;;34.20;;
22871;SDS011;11603;44.910;8.630;2022-11-09T15:12:34;47.92;;;33.25;;
22871;SDS011;11603;44.910;8.630;2022-11-09T15:15:21;49.65;;;34.10;;
22871;SDS011;11603;44.910;8.630;2022-11-09T15:18:15;53.83;;;35.53;;
22871;SDS011;11603;44.910;8.630;2022-11-09T15:21:08;47.30;;;34.33;;
22871;SDS011;11603;44.910;8.630;2022-11-09T15:26:51;46.28;;;33.40;;
22871;SDS011;11603;44.910;8.630;2022-11-09T15:29:37;45.70;;;32.33;;
22871;SDS011;11603;44.910;8.630;2022-11-09T15:32:23;47.92;;;33.13;;
22871;SDS011;11603;44.910;8.630;2022-11-09T15:35:13;47.20;;;33.35;;
22871;SDS011;11603;44.910;8.630;2022-11-09T15:37:59;51.95;;;33.42;;
22871;SDS011;11603;44.910;8.630;2022-11-09T15:40:44;52.65;;;36.55;;
22871;SDS011;11603;44.910;8.630;2022-11-09T15:43:28;48.65;;;36.40;;
22871;SDS011;11603;44.910;8.630;2022-11-09T15:46:13;53.50;;;36.28;;
22871;SDS011;11603;44.910;8.630;2022-11-09T15:49:08;47.88;;;36.53;;
22871;SDS011;11603;44.910;8.630;2022-11-09T15:52:08;51.22;;;35.88;;
22871;SDS011;11603;44.910;8.630;2022-11-09T15:54:54;58.95;;;39.40;;
22871;SDS011;11603;44.910;8.630;2022-11-09T15:57:38;58.63;;;38.28;;
22871;SDS011;11603;44.910;8.630;2022-11-09T16:00:22;51.95;;;38.42;;
22871;SDS011;11603;44.910;8.630;2022-11-09T16:03:06;54.13;;;39.28;;
22871;SDS011;11603;44.910;8.630;2022-11-09T16:05:52;56.90;;;40.20;;
22871;SDS011;11603;44.910;8.630;2022-11-09T16:08:36;52.95;;;36.78;;
22871;SDS011;11603;44.910;8.630;2022-11-09T16:11:20;51.53;;;37.97;;
22871;SDS011;11603;44.910;8.630;2022-11-09T16:14:03;53.63;;;37.05;;
22871;SDS011;11603;44.910;8.630;2022-11-09T16:16:49;53.95;;;38.60;;
22871;SDS011;11603;44.910;8.630;2022-11-09T16:19:33;53.83;;;38.13;;
22871;SDS011;11603;44.910;8.630;2022-11-09T16:22:17;50.47;;;37.60;;
22871;SDS011;11603;44.910;8.630;2022-11-09T16:25:02;53.00;;;37.63;;
22871;SDS011;11603;44.910;8.630;2022-11-09T16:27:46;55.70;;;38.55;;
22871;SDS011;11603;44.910;8.630;2022-11-09T16:30:30;51.10;;;38.55;;
22871;SDS011;11603;44.910;8.630;2022-11-09T16:33:14;57.72;;;39.50;;
22871;SDS011;11603;44.910;8.630;2022-11-09T16:35:59;51.72;;;38.60;;
22871;SDS011;11603;44.910;8.630;2022-11-09T16:38:47;48.53;;;35.25;;
22871;SDS011;11603;44.910;8.630;2022-11-09T16:41:36;53.72;;;37.92;;
22871;SDS011;11603;44.910;8.630;2022-11-09T16:44:22;51.72;;;36.35;;
22871;SDS011;11603;44.910;8.630;2022-11-09T16:47:07;50.00;;;37.30;;
22871;SDS011;11603;44.910;8.630;2022-11-09T16:49:54;47.60;;;36.35;;
22871;SDS011;11603;44.910;8.630;2022-11-09T16:52:38;48.10;;;36.90;;
22871;SDS011;11603;44.910;8.630;2022-11-09T16:55:22;50.05;;;37.20;;
22871;SDS011;11603;44.910;8.630;2022-11-09T16:58:06;47.80;;;36.33;;